San Lorenzo de El Escorial, Spain
Current Conditions -  °F | °C
As of 7:00 PM on Friday 24 Oct 2014 (Local Time) from LEVS Reporting Station
Clear Clear  
Wind Chill: 25°   Ceiling: Unl
Heat Index: 25°   Visibility: 6mi
Dew Point:   Wind: 2mph
Humidity: 28%   Direction: NA
Pressure: 30.09"   Gusts: NA
Location:  40.59°N, 4.15°W
Report Text: LEVS 241700Z VRB02KT CAVOK 25/05 Q1019
Loading
Personal Weather Stations






























Interactive Weather Map
Tropical Storm Tracking
New forecast layout! Learn more

10-Day Weather Forecast

Advertisements
Track Severe Weather on mobile